US-0298 weather

Kaiser Permanente Modesto Heliport
Modesto, California, United States

Public forecast

Using degrees Fahrenheit for public forecast. Weather courtesy of forecast.io.

Closest aviation weather report (METAR) to Kaiser Permanente Modesto Heliport

Closest report is Modesto City Co-Harry Sham Field, 6.8 nm (12.6 km) SE. Retrieved 2019/11/15 03:53 UTC (8 minutes ago):

KMOD 150353Z 33008KT 10SM CLR 15/10 A3010 RMK AO2 SLP193 T01500100

Closest aviation forecast (TAF) to Kaiser Permanente Modesto Heliport

Closest forecast is Modesto City Co-Harry Sham Field, 6.8 nm (12.6 km) SE. Retrieved 2019-11-15 00:33 UTC (3 hours ago):

TAF TAF KMOD 142329Z 1500/1524 32009KT P6SM BKN250 FM151200 33003KT 6SM HZ OVC100 TEMPO 1513/1517 4SM BR FM151700 32010KT P6SM BKN150